Time;durP1;ratioP1;P1;durP2;ratioP2;P2;SDS_P1;SDS_P2;PMS_P1;PMS_P2;Temp;Humidity;BMP_temperature;BMP_pressure;BME280_temperature;BME280_humidity;BME280_pressure;Samples;Min_cycle;Max_cycle;Signal;HPM_P1;HPM_P2
2021/04/28 00:01:16;;;;;;;6.10;3.13;;;;;;;4.03;48.56;100107.53;5032685;28;20076;-75
2021/04/28 00:03:41;;;;;;;6.15;3.10;;;;;;;4.00;48.58;100102.28;5032709;28;20040;-75
2021/04/28 00:06:07;;;;;;;11.10;3.35;;;;;;;3.98;48.54;100106.59;5031542;28;20032;-75
2021/04/28 00:08:32;;;;;;;6.90;3.30;;;;;;;3.95;48.38;100104.81;5032581;28;20125;-75
2021/04/28 00:10:57;;;;;;;8.15;3.28;;;;;;;3.93;49.20;100102.19;5032631;28;20044;-75
2021/04/28 00:13:23;;;;;;;6.68;3.17;;;;;;;3.92;48.97;100103.03;5032468;28;20033;-76
2021/04/28 00:15:50;;;;;;;7.45;3.10;;;;;;;3.92;49.57;100095.19;5032436;28;20064;-75
2021/04/28 00:18:16;;;;;;;6.45;3.08;;;;;;;3.92;49.46;100096.94;5032514;28;20041;-76
2021/04/28 00:20:43;;;;;;;8.65;3.90;;;;;;;3.89;49.29;100095.16;5032484;28;20091;-76
2021/04/28 00:23:09;;;;;;;7.72;3.80;;;;;;;3.89;49.61;100089.06;5031996;28;20415;-76
2021/04/28 00:25:36;;;;;;;7.05;2.80;;;;;;;3.89;49.68;100083.84;5032360;28;20053;-76
2021/04/28 00:28:02;;;;;;;7.57;3.05;;;;;;;3.88;49.91;100088.22;5032345;28;20030;-76
2021/04/28 00:30:28;;;;;;;8.02;3.95;;;;;;;3.88;49.89;100087.34;5031145;28;20033;-76
2021/04/28 00:32:54;;;;;;;7.15;3.55;;;;;;;3.87;49.79;100078.59;5031910;28;20033;-76
2021/04/28 00:35:21;;;;;;;8.48;3.80;;;;;;;3.86;50.36;100076.84;5032238;28;20038;-76
2021/04/28 00:37:48;;;;;;;9.18;3.58;;;;;;;3.88;50.40;100077.75;5032086;28;20555;-75
2021/04/28 00:40:17;;;;;;;7.28;3.83;;;;;;;3.91;50.67;100067.34;5032003;28;20022;-75
2021/04/28 00:42:44;;;;;;;8.48;3.85;;;;;;;3.97;50.06;100073.53;5031781;28;20041;-75
2021/04/28 00:45:11;;;;;;;8.30;3.95;;;;;;;4.04;50.43;100072.75;5031757;28;20405;-75
2021/04/28 00:47:36;;;;;;;7.78;4.57;;;;;;;4.08;50.49;100066.69;5030703;28;20041;-75
2021/04/28 00:50:05;;;;;;;7.47;4.07;;;;;;;4.14;50.01;100061.56;5031877;28;20030;-75
2021/04/28 00:52:30;;;;;;;8.45;4.07;;;;;;;4.17;50.36;100066.81;5030210;28;20033;-75
2021/04/28 00:54:56;;;;;;;13.63;4.22;;;;;;;4.27;49.99;100058.25;5031775;28;20108;-76
2021/04/28 00:57:22;;;;;;;6.57;3.72;;;;;;;4.36;50.40;100071.41;5030540;28;20823;-76
2021/04/28 00:59:47;;;;;;;9.90;4.28;;;;;;;4.38;50.43;100061.84;5030448;28;20481;-76
2021/04/28 01:02:13;;;;;;;9.05;4.00;;;;;;;4.47;50.41;100052.34;5030192;28;20083;-76
2021/04/28 01:04:41;;;;;;;10.25;4.25;;;;;;;4.53;50.08;100057.63;5031551;28;20037;-75
2021/04/28 01:07:07;;;;;;;10.73;5.50;;;;;;;4.63;50.40;100056.88;5030247;28;20056;-75
2021/04/28 01:09:35;;;;;;;8.95;4.60;;;;;;;4.72;50.11;100043.91;5030842;28;20041;-75
2021/04/28 01:12:03;;;;;;;8.18;4.10;;;;;;;4.79;50.09;100047.44;5030002;28;20067;-75
2021/04/28 01:14:30;;;;;;;7.07;3.67;;;;;;;4.91;49.67;100044.06;5039322;28;20064;-75
2021/04/28 01:16:56;;;;;;;10.00;5.07;;;;;;;4.95;49.96;100040.59;5013697;28;20472;-75
2021/04/28 01:19:23;;;;;;;9.73;4.30;;;;;;;4.99;50.12;100045.88;5026308;28;20033;-75
2021/04/28 01:21:52;;;;;;;8.23;4.25;;;;;;;5.02;49.99;100037.19;5013953;28;20037;-74
2021/04/28 01:24:18;;;;;;;9.02;3.97;;;;;;;5.04;49.60;100051.16;5029931;28;20037;-75
2021/04/28 01:26:48;;;;;;;8.77;3.60;;;;;;;5.04;49.58;100035.47;5030036;28;20461;-75
2021/04/28 01:29:16;;;;;;;7.60;3.97;;;;;;;5.09;50.12;100032.91;5030080;28;20087;-75
2021/04/28 01:31:42;;;;;;;8.65;4.70;;;;;;;5.07;49.94;100039.84;5029380;28;20032;-75
2021/04/28 01:34:09;;;;;;;7.68;4.13;;;;;;;5.07;49.89;100032.00;5013353;28;20078;-75
2021/04/28 01:36:38;;;;;;;9.57;4.30;;;;;;;5.05;49.80;100031.97;5026102;28;20504;-75
2021/04/28 01:39:10;;;;;;;6.75;3.67;;;;;;;5.03;50.15;100033.69;5029779;28;20029;-75
2021/04/28 01:41:40;;;;;;;8.00;3.95;;;;;;;5.04;49.96;100032.84;5026272;28;20037;-75
2021/04/28 01:44:09;;;;;;;9.75;4.72;;;;;;;5.01;50.15;100030.22;5029915;28;20083;-75
2021/04/28 01:46:36;;;;;;;7.60;4.25;;;;;;;4.98;49.92;100038.06;5029455;28;20484;-75
2021/04/28 01:49:04;;;;;;;8.43;4.13;;;;;;;4.94;50.26;100023.19;5029805;28;20029;-75
2021/04/28 01:51:31;;;;;;;9.55;4.47;;;;;;;4.87;50.18;100023.97;5030733;28;20064;-75
2021/04/28 01:53:57;;;;;;;8.23;4.20;;;;;;;4.78;50.18;100028.28;5030952;28;20029;-75
2021/04/28 01:56:23;;;;;;;9.63;4.13;;;;;;;4.70;50.59;100029.94;5030876;28;20040;-75
2021/04/28 01:59:08;;;;;;;8.40;4.85;;;;;;;4.63;50.71;100028.13;5028724;28;20063;-75
2021/04/28 02:02:01;;;;;;;9.07;4.50;;;;;;;4.56;50.13;100018.50;5018550;28;20053;-75
2021/04/28 02:04:30;;;;;;;9.82;4.65;;;;;;;4.52;50.83;100016.69;5030675;28;20044;-75
2021/04/28 02:06:58;;;;;;;8.10;4.05;;;;;;;4.44;51.07;100015.75;5027352;28;20033;-75
2021/04/28 02:09:23;;;;;;;10.50;4.90;;;;;;;4.36;50.94;100008.69;5030306;28;20160;-75
2021/04/28 02:11:48;;;;;;;8.95;5.05;;;;;;;4.31;51.63;100010.38;5030522;28;20069;-75
2021/04/28 02:14:16;;;;;;;13.27;7.03;;;;;;;4.30;52.12;100005.16;5029404;28;20502;-75
2021/04/28 02:16:56;;;;;;;11.63;8.00;;;;;;;4.28;51.62;100012.09;5029274;28;20029;-75
2021/04/28 02:19:23;;;;;;;12.60;7.28;;;;;;;4.27;52.49;99998.16;5029405;28;20079;-75
2021/04/28 02:21:55;;;;;;;13.50;8.02;;;;;;;4.28;52.22;100001.63;5032980;28;20039;-75
2021/04/28 02:24:32;;;;;;;12.75;7.85;;;;;;;4.27;52.17;99992.94;5033423;28;20072;-75
2021/04/28 02:26:58;;;;;;;10.82;6.15;;;;;;;4.27;52.01;100005.09;5033288;28;20493;-76
2021/04/28 02:29:24;;;;;;;10.68;6.03;;;;;;;4.26;52.09;99992.91;5034597;28;20017;-75
2021/04/28 02:31:50;;;;;;;9.73;5.45;;;;;;;4.25;52.44;99994.66;5016596;28;20029;-75
2021/04/28 02:34:20;;;;;;;8.30;4.90;;;;;;;4.25;52.07;99989.41;5033007;28;20087;-75
2021/04/28 02:37:19;;;;;;;14.73;8.38;;;;;;;4.22;52.99;99978.94;5032991;28;20033;-75
2021/04/28 02:40:11;;;;;;;9.60;5.53;;;;;;;4.18;52.76;99983.25;5027913;28;20073;-75
2021/04/28 02:42:38;;;;;;;;;;;;;;;4.09;53.05;99987.50;5034524;28;20033;-74
2021/04/28 02:45:07;;;;;;;8.93;4.32;;;;;;;4.11;52.60;99977.94;5041834;28;19917;-75
2021/04/28 02:47:34;;;;;;;10.07;5.22;;;;;;;4.10;52.64;99970.97;5032967;28;20501;-75
2021/04/28 02:50:04;;;;;;;10.20;5.60;;;;;;;4.09;52.94;99972.72;5034068;28;20075;-75
2021/04/28 02:52:50;;;;;;;11.90;5.55;;;;;;;4.09;52.62;99972.72;5030721;28;20130;-75
2021/04/28 02:55:17;;;;;;;9.25;5.55;;;;;;;4.09;53.09;99966.63;5033766;28;20111;-74
2021/04/28 02:57:46;;;;;;;10.98;5.30;;;;;;;4.07;52.79;99971.81;5016416;28;20033;-75
2021/04/28 03:00:14;;;;;;;15.35;5.95;;;;;;;4.07;52.75;99963.09;5016221;28;20029;-75
2021/04/28 03:02:40;;;;;;;11.75;5.88;;;;;;;4.07;52.61;99978.78;5032282;28;20037;-75
2021/04/28 03:05:07;;;;;;;12.93;6.28;;;;;;;4.04;52.70;99976.13;5032509;28;20029;-75
2021/04/28 03:07:53;;;;;;;12.25;5.30;;;;;;;4.00;52.83;99974.34;5031342;28;20091;-75
2021/04/28 03:10:20;;;;;;;11.82;5.65;;;;;;;3.93;53.45;99974.28;5032463;28;20413;-75
2021/04/28 03:12:47;;;;;;;14.07;6.63;;;;;;;3.88;53.20;99967.25;5033381;28;20486;-75
2021/04/28 03:15:15;;;;;;;12.90;7.40;;;;;;;3.85;52.76;99972.41;5032371;28;20029;-75
2021/04/28 03:17:41;;;;;;;13.35;5.82;;;;;;;3.79;52.71;99967.13;5030070;28;20033;-75
2021/04/28 03:20:12;;;;;;;11.75;5.85;;;;;;;3.71;53.75;99965.28;5032160;28;20083;-75
2021/04/28 03:22:43;;;;;;;11.10;5.70;;;;;;;3.59;53.23;99974.69;5028730;28;20088;-75
2021/04/28 03:25:11;;;;;;;9.68;5.10;;;;;;;3.42;54.50;99974.47;5032062;28;20033;-75
2021/04/28 03:27:37;;;;;;;12.15;6.47;;;;;;;3.29;54.30;99971.69;5032084;28;20064;-75
2021/04/28 03:30:05;;;;;;;11.57;5.72;;;;;;;3.20;54.00;99975.91;5031947;28;20486;-75
2021/04/28 03:32:31;;;;;;;11.98;5.65;;;;;;;3.13;54.47;99974.94;5031772;28;20033;-75
2021/04/28 03:35:13;;;;;;;9.05;5.10;;;;;;;3.07;54.33;99980.06;5031884;28;20072;-75
2021/04/28 03:37:43;;;;;;;8.32;4.50;;;;;;;3.06;54.24;99973.94;5031937;28;20095;-74
2021/04/28 03:40:09;;;;;;;13.35;5.65;;;;;;;3.04;54.42;99975.69;5031748;28;20083;-75
2021/04/28 03:42:36;;;;;;;10.77;6.10;;;;;;;3.04;54.88;99978.28;5032863;28;20042;-75
2021/04/28 03:45:07;;;;;;;11.68;6.10;;;;;;;3.00;54.95;99973.00;5032982;28;20065;-75
2021/04/28 03:47:34;;;;;;;11.13;5.82;;;;;;;2.96;54.77;99982.50;5045889;22;20033;-70
2021/04/28 03:50:00;;;;;;;11.48;6.25;;;;;;;2.94;55.12;99975.50;5028551;28;20489;-71
2021/04/28 03:52:26;;;;;;;8.48;4.97;;;;;;;2.92;55.36;99975.47;5031161;28;20034;-71
2021/04/28 03:55:11;;;;;;;12.18;5.20;;;;;;;2.90;55.26;99971.97;5031823;28;20111;-71
2021/04/28 03:57:37;;;;;;;10.55;5.30;;;;;;;2.89;54.88;99983.25;5031521;28;20158;-71
2021/04/28 04:00:07;;;;;;;11.15;5.47;;;;;;;2.86;55.02;99972.78;5031416;28;20029;-71
2021/04/28 04:02:41;;;;;;;9.95;4.90;;;;;;;2.83;55.37;99976.22;5029903;28;20037;-71
2021/04/28 04:05:26;;;;;;;9.35;5.50;;;;;;;2.81;55.64;99983.13;5030331;28;20120;-71
2021/04/28 04:08:05;;;;;;;14.70;7.90;;;;;;;2.84;55.03;99977.97;5028434;28;20036;-71
2021/04/28 04:10:36;;;;;;;11.88;6.60;;;;;;;2.90;54.82;99977.16;5031396;28;20460;-71
2021/04/28 04:13:01;;;;;;;15.35;7.10;;;;;;;2.95;55.05;99980.72;5031133;28;20034;-71
2021/04/28 04:15:27;;;;;;;11.98;6.45;;;;;;;3.00;55.50;99980.81;5032701;28;20112;-71
2021/04/28 04:17:55;;;;;;;19.25;7.07;;;;;;;3.04;54.62;99978.28;5032412;28;20057;-71
2021/04/28 04:20:24;;;;;;;18.00;6.78;;;;;;;3.07;55.35;99980.94;5031161;28;20045;-71
2021/04/28 04:22:54;;;;;;;11.27;5.97;;;;;;;3.11;55.01;99980.97;5030840;28;20125;-71
2021/04/28 04:25:34;;;;;;;13.98;6.60;;;;;;;3.16;54.60;99980.19;5031171;28;20045;-71
2021/04/28 04:27:59;;;;;;;13.00;6.57;;;;;;;3.22;54.90;99984.59;5032352;28;20038;-71
2021/04/28 04:30:43;;;;;;;10.68;6.22;;;;;;;3.29;55.22;99992.53;5031208;28;20468;-70
2021/04/28 04:33:31;;;;;;;12.23;6.30;;;;;;;3.35;55.08;99981.31;5029100;28;20116;-71
2021/04/28 04:36:15;;;;;;;8.50;5.15;;;;;;;3.41;54.82;99978.81;5029652;28;20048;-71
2021/04/28 04:38:59;;;;;;;11.00;5.93;;;;;;;3.48;54.72;99978.06;5029823;28;20512;-70
2021/04/28 04:41:47;;;;;;;15.32;8.45;;;;;;;3.55;54.41;99979.00;5021380;28;20045;-71
2021/04/28 04:44:23;;;;;;;12.23;6.05;;;;;;;3.62;54.20;99982.56;5029463;28;20159;-71
2021/04/28 04:46:59;;;;;;;9.75;5.72;;;;;;;3.68;54.82;99980.03;5028483;28;20044;-70
2021/04/28 04:49:25;;;;;;;11.43;6.03;;;;;;;3.73;54.64;99986.19;5031829;28;20494;-72
2021/04/28 04:51:50;;;;;;;10.98;7.50;;;;;;;3.78;55.01;99981.91;5031671;28;20041;-72
2021/04/28 04:54:15;;;;;;;12.65;6.65;;;;;;;3.80;54.53;99980.19;5031735;28;20099;-72
2021/04/28 04:56:40;;;;;;;10.90;6.13;;;;;;;3.81;54.76;99981.06;5031834;28;20037;-71
2021/04/28 04:59:06;;;;;;;12.48;7.15;;;;;;;3.90;54.51;99984.69;5031754;28;20512;-70
2021/04/28 05:01:31;;;;;;;18.58;9.73;;;;;;;4.00;55.24;99987.38;5031166;28;20560;-71
2021/04/28 05:03:57;;;;;;;13.48;7.55;;;;;;;4.07;54.61;99992.69;5031419;28;20083;-71
2021/04/28 05:06:23;;;;;;;11.75;6.53;;;;;;;4.15;54.69;99983.22;5030291;28;20115;-70
2021/04/28 05:08:48;;;;;;;10.77;6.30;;;;;;;4.23;54.89;99985.03;5031467;28;20555;-71
2021/04/28 05:11:14;;;;;;;12.43;6.20;;;;;;;4.29;54.69;99980.75;5030182;28;20029;-71
2021/04/28 05:13:39;;;;;;;10.30;5.50;;;;;;;4.34;54.92;99981.66;5031401;28;20037;-71
2021/04/28 05:16:04;;;;;;;10.45;6.00;;;;;;;4.38;54.98;99980.84;5031371;28;20033;-71
2021/04/28 05:18:30;;;;;;;12.13;6.45;;;;;;;4.50;54.75;99979.22;5031300;28;20036;-71
2021/04/28 05:20:55;;;;;;;11.02;6.43;;;;;;;4.59;55.02;99980.19;5029917;28;20038;-71
2021/04/28 05:23:20;;;;;;;13.68;7.13;;;;;;;4.66;55.44;99975.88;5030989;28;20112;-70
2021/04/28 05:26:02;;;;;;;12.40;5.93;;;;;;;4.73;55.42;99980.28;5027056;28;20064;-71
2021/04/28 05:28:28;;;;;;;15.07;6.78;;;;;;;4.81;55.21;99976.00;5030007;28;20068;-71
2021/04/28 05:30:53;;;;;;;14.35;6.43;;;;;;;4.88;55.21;99976.94;5031151;28;20074;-71
2021/04/28 05:33:19;;;;;;;12.43;6.70;;;;;;;4.97;55.00;99974.38;5030917;28;20040;-71
2021/04/28 05:35:44;;;;;;;14.38;7.47;;;;;;;5.09;54.23;99971.00;5028319;28;20037;-71
2021/04/28 05:38:09;;;;;;;16.17;7.60;;;;;;;5.18;54.16;99970.19;5031029;28;20502;-71
2021/04/28 05:40:35;;;;;;;13.35;6.70;;;;;;;5.31;54.14;99976.38;5031329;28;20576;-71
2021/04/28 05:43:00;;;;;;;13.18;7.28;;;;;;;5.38;53.54;99972.94;5030867;28;20528;-71
2021/04/28 05:45:26;;;;;;;13.50;7.13;;;;;;;5.46;53.48;99973.84;5031041;28;20083;-71
2021/04/28 05:47:51;;;;;;;15.07;7.60;;;;;;;5.56;53.77;99972.16;5030923;28;20421;-71
2021/04/28 05:50:17;;;;;;;10.88;6.70;;;;;;;5.66;53.30;99972.22;5031176;28;20033;-71
2021/04/28 05:52:43;;;;;;;17.20;6.70;;;;;;;5.74;52.71;99968.72;5027185;28;20038;-70
2021/04/28 05:55:10;;;;;;;11.32;6.50;;;;;;;5.76;52.95;99965.25;5033532;28;20052;-71
2021/04/28 05:57:37;;;;;;;19.05;8.13;;;;;;;5.88;52.28;99969.69;5037531;28;20039;-71
2021/04/28 06:00:08;;;;;;;17.00;7.78;;;;;;;5.99;52.13;99961.88;5037427;28;20037;-71
2021/04/28 06:02:40;;;;;;;14.85;8.57;;;;;;;6.02;51.72;99965.38;5035986;28;20087;-71
2021/04/28 06:05:06;;;;;;;13.50;8.20;;;;;;;6.03;51.68;99964.53;5037444;28;20037;-71
2021/04/28 06:07:32;;;;;;;12.18;7.47;;;;;;;6.00;51.75;99963.63;5037349;28;20500;-71
2021/04/28 06:09:57;;;;;;;12.30;7.28;;;;;;;5.97;51.91;99969.72;5036285;28;20033;-71
2021/04/28 06:12:23;;;;;;;14.02;7.20;;;;;;;5.99;52.07;99967.13;5037099;28;20041;-71
2021/04/28 06:14:48;;;;;;;13.13;8.07;;;;;;;6.05;51.90;99957.56;5037197;28;20183;-71
2021/04/28 06:17:13;;;;;;;14.43;7.68;;;;;;;6.16;52.00;99962.81;5037391;28;20033;-71
2021/04/28 06:19:39;;;;;;;18.95;8.68;;;;;;;6.29;51.89;99961.13;5037060;28;20154;-71
2021/04/28 06:22:04;;;;;;;12.98;7.32;;;;;;;6.44;51.46;99949.75;5036967;28;20033;-71
2021/04/28 06:24:29;;;;;;;12.52;7.47;;;;;;;6.61;51.06;99955.03;5037275;28;20044;-71
2021/04/28 06:26:55;;;;;;;13.25;7.35;;;;;;;6.75;50.56;99950.66;5037374;28;20047;-71
2021/04/28 06:29:20;;;;;;;15.35;7.40;;;;;;;6.83;50.27;99948.91;5037426;28;20040;-71
2021/04/28 06:31:46;;;;;;;14.10;7.35;;;;;;;6.99;49.99;99944.53;5037330;28;20512;-71
2021/04/28 06:34:11;;;;;;;13.77;7.25;;;;;;;7.11;49.63;99944.50;5037050;28;20049;-71
2021/04/28 06:36:36;;;;;;;15.05;7.63;;;;;;;7.25;49.54;99939.22;5037227;28;20073;-70
2021/04/28 06:39:03;;;;;;;14.25;6.95;;;;;;;7.39;49.54;99945.34;5037067;28;20061;-71
2021/04/28 06:41:29;;;;;;;16.55;7.50;;;;;;;7.52;49.31;99943.56;5036992;28;20045;-71
2021/04/28 06:43:54;;;;;;;11.65;6.85;;;;;;;7.64;49.25;99942.63;5037101;28;20039;-71
2021/04/28 06:46:19;;;;;;;15.40;8.50;;;;;;;7.76;49.20;99934.72;5037202;28;20037;-71
2021/04/28 06:48:45;;;;;;;13.60;7.00;;;;;;;7.86;48.50;99931.16;5036834;28;20025;-71
2021/04/28 06:51:10;;;;;;;16.05;7.40;;;;;;;7.94;47.92;99935.50;5033261;28;20505;-71
2021/04/28 06:53:35;;;;;;;11.05;6.80;;;;;;;8.04;47.77;99934.56;5036915;28;20041;-71
2021/04/28 06:56:01;;;;;;;13.23;6.97;;;;;;;8.16;47.37;99936.25;5036950;28;20167;-71
2021/04/28 06:58:28;;;;;;;11.35;6.55;;;;;;;8.20;46.95;99936.25;5035495;28;20037;-71
2021/04/28 07:00:54;;;;;;;19.10;9.50;;;;;;;8.32;47.34;99927.38;5036943;28;20485;-71
2021/04/28 07:03:19;;;;;;;18.42;8.80;;;;;;;8.46;46.59;99932.56;5036626;28;20099;-71
2021/04/28 07:05:45;;;;;;;14.85;7.47;;;;;;;8.58;46.35;99927.25;5036997;28;20041;-71
2021/04/28 07:08:10;;;;;;;14.85;8.00;;;;;;;8.67;46.08;99921.91;5032626;28;20038;-71
2021/04/28 07:10:36;;;;;;;13.30;7.88;;;;;;;8.82;45.79;99920.03;5033854;28;20091;-71
2021/04/28 07:13:04;;;;;;;14.10;7.05;;;;;;;8.97;45.33;99920.75;5033465;28;20040;-71
2021/04/28 07:15:30;;;;;;;11.07;6.97;;;;;;;9.13;44.61;99921.47;5033837;28;20130;-71
2021/04/28 07:17:55;;;;;;;14.98;8.73;;;;;;;9.25;43.98;99912.59;5033509;28;20116;-71
2021/04/28 07:20:20;;;;;;;13.23;7.55;;;;;;;9.37;43.03;99909.81;5033679;28;20122;-71
2021/04/28 07:22:46;;;;;;;11.20;6.10;;;;;;;9.52;42.93;99911.41;5033343;28;20111;-71
2021/04/28 07:25:12;;;;;;;13.93;6.85;;;;;;;9.61;42.83;99908.66;5033550;28;20041;-70
2021/04/28 07:27:38;;;;;;;19.20;8.00;;;;;;;9.77;42.72;99904.09;5033399;28;20041;-71
2021/04/28 07:30:07;;;;;;;12.30;6.25;;;;;;;9.96;41.67;99902.06;5030378;28;20030;-71
2021/04/28 07:32:33;;;;;;;10.35;6.53;;;;;;;10.09;40.88;99908.91;5033180;28;20037;-71
2021/04/28 07:34:58;;;;;;;11.52;5.80;;;;;;;10.17;41.05;99906.16;5033332;28;20106;-71
2021/04/28 07:37:24;;;;;;;11.55;6.18;;;;;;;10.31;41.30;99901.59;5029615;28;20120;-71
2021/04/28 07:39:49;;;;;;;10.23;6.40;;;;;;;10.45;40.60;99898.75;5033207;28;20045;-71
2021/04/28 07:42:14;;;;;;;11.65;5.90;;;;;;;10.63;40.16;99907.25;5032918;28;20052;-71
2021/04/28 07:44:40;;;;;;;13.35;7.65;;;;;;;10.74;40.38;99895.63;5028022;28;20035;-71
2021/04/28 07:47:05;;;;;;;12.77;7.97;;;;;;;10.83;40.97;99902.50;5033158;28;20033;-71
2021/04/28 07:49:31;;;;;;;20.10;9.57;;;;;;;10.96;41.22;99903.19;5033047;28;20112;-71
2021/04/28 07:51:56;;;;;;;22.25;13.57;;;;;;;11.14;41.22;99904.63;5032900;28;20505;-71
2021/04/28 07:54:27;;;;;;;16.98;11.05;;;;;;;11.28;41.36;99899.94;5033047;28;20037;-71
2021/04/28 07:56:52;;;;;;;16.60;9.27;;;;;;;11.37;40.23;99902.41;5032908;28;20091;-71
2021/04/28 07:59:17;;;;;;;18.23;13.45;;;;;;;11.46;39.96;99900.50;5032824;28;20049;-71
2021/04/28 08:01:42;;;;;;;16.45;11.00;;;;;;;11.56;39.78;99904.69;5032608;28;20041;-71
2021/04/28 08:04:08;;;;;;;14.93;8.18;;;;;;;11.63;38.85;99893.97;5032742;28;20044;-71
2021/04/28 08:06:34;;;;;;;12.18;7.13;;;;;;;11.67;38.53;99894.75;5031365;28;20095;-71
2021/04/28 08:08:59;;;;;;;13.00;7.82;;;;;;;11.78;38.78;99886.59;5031531;28;20120;-71
2021/04/28 08:11:25;;;;;;;14.20;7.32;;;;;;;11.81;38.59;99892.69;5032333;28;20030;-70
2021/04/28 08:13:50;;;;;;;12.85;8.38;;;;;;;11.96;38.81;99893.31;5031355;28;20116;-71
2021/04/28 08:16:16;;;;;;;14.35;8.90;;;;;;;12.10;39.03;99882.41;5032019;28;20573;-71
2021/04/28 08:18:41;;;;;;;13.48;7.88;;;;;;;12.23;39.01;99882.09;5031891;28;20532;-72
2021/04/28 08:21:07;;;;;;;13.30;8.10;;;;;;;12.33;38.84;99877.44;5032426;28;20060;-71
2021/04/28 08:23:32;;;;;;;15.05;9.93;;;;;;;12.43;38.87;99880.75;5031942;28;20040;-71
2021/04/28 08:26:04;;;;;;;14.50;9.43;;;;;;;12.53;38.66;99874.34;5032475;28;20112;-72
2021/04/28 08:28:30;;;;;;;17.50;8.88;;;;;;;12.58;37.61;99872.44;5032318;28;20040;-72
2021/04/28 08:30:55;;;;;;;13.90;9.07;;;;;;;12.61;37.84;99864.41;5032204;28;20401;-71
2021/04/28 08:33:21;;;;;;;10.88;7.65;;;;;;;12.66;37.81;99873.13;5030086;28;20674;-72
2021/04/28 08:35:46;;;;;;;14.80;8.82;;;;;;;12.69;37.62;99862.44;5032131;28;20044;-72
2021/04/28 08:38:11;;;;;;;14.05;8.13;;;;;;;12.74;38.01;99864.13;5032206;28;20116;-71
2021/04/28 08:40:37;;;;;;;12.73;7.32;;;;;;;12.81;37.88;99855.09;5032029;28;20125;-71
2021/04/28 08:43:03;;;;;;;15.63;7.90;;;;;;;12.85;38.17;99857.63;5031767;28;20041;-71
2021/04/28 08:45:28;;;;;;;25.25;16.90;;;;;;;12.91;38.59;99861.88;5032004;28;20516;-71
2021/04/28 08:47:54;;;;;;;33.58;21.50;;;;;;;13.09;38.50;99856.09;5030600;28;20132;-71
2021/04/28 08:50:19;;;;;;;25.65;16.15;;;;;;;13.27;38.50;99856.53;5031818;28;20034;-72
2021/04/28 08:52:45;;;;;;;16.38;9.40;;;;;;;13.33;37.87;99854.56;5031680;28;20453;-72
2021/04/28 08:55:12;;;;;;;13.82;8.60;;;;;;;13.36;37.66;99848.31;5031904;28;20037;-72
2021/04/28 08:57:37;;;;;;;16.55;10.05;;;;;;;13.45;38.18;99849.84;5031749;28;20025;-72
2021/04/28 09:00:07;;;;;;;17.00;9.80;;;;;;;13.54;38.01;99846.91;5031689;28;20374;-71
2021/04/28 09:02:33;;;;;;;16.95;9.50;;;;;;;13.65;37.33;99850.16;5031435;28;20038;-71
2021/04/28 09:05:10;;;;;;;19.73;11.13;;;;;;;13.76;37.43;99842.72;5031612;28;20114;-71
2021/04/28 09:07:37;;;;;;;33.88;10.55;;;;;;;13.89;37.82;99840.56;5027856;28;20036;-71
2021/04/28 09:10:06;;;;;;;13.60;9.15;;;;;;;14.00;37.19;99841.09;5031583;28;20065;-71
2021/04/28 09:12:32;;;;;;;13.07;8.90;;;;;;;14.10;36.68;99835.53;5031262;28;20460;-71
2021/04/28 09:14:57;;;;;;;12.38;9.13;;;;;;;14.17;37.23;99834.38;5031503;28;20033;-72
2021/04/28 09:17:23;;;;;;;20.52;15.60;;;;;;;14.22;37.67;99835.13;5031619;28;20029;-72
2021/04/28 09:20:16;;;;;;;21.55;13.50;;;;;;;14.43;37.65;99834.41;5028526;28;20060;-72
2021/04/28 09:23:03;;;;;;;13.82;8.32;;;;;;;14.48;36.63;99832.47;5030823;28;20052;-72
2021/04/28 09:25:49;;;;;;;19.52;15.13;;;;;;;14.55;36.37;99833.19;5028101;28;20512;-71
2021/04/28 09:28:36;;;;;;;26.10;18.67;;;;;;;14.76;37.43;99826.28;5028175;28;20085;-72
2021/04/28 09:31:06;;;;;;;25.67;19.33;;;;;;;14.95;37.08;99830.94;5030623;28;20033;-71
2021/04/28 09:33:52;;;;;;;23.77;17.77;;;;;;;15.19;36.60;99824.72;5030878;28;20454;-71
2021/04/28 09:36:28;;;;;;;34.03;22.98;;;;;;;15.45;36.26;99825.56;5028378;28;20056;-72
2021/04/28 09:39:08;;;;;;;22.48;18.17;;;;;;;15.56;34.81;99826.03;5027602;28;20065;-72
2021/04/28 09:41:42;;;;;;;15.68;10.07;;;;;;;15.49;34.14;99824.53;5030861;28;20251;-71
2021/04/28 09:44:16;;;;;;;20.30;15.88;;;;;;;15.46;35.08;99819.34;5031004;28;20037;-72
2021/04/28 09:47:14;;;;;;;17.13;11.18;;;;;;;15.52;34.45;99821.75;5028405;28;20413;-71
2021/04/28 09:49:51;;;;;;;12.45;8.57;;;;;;;15.46;33.87;99822.00;5030181;28;20036;-71
2021/04/28 09:52:23;;;;;;;15.98;9.15;;;;;;;15.41;34.30;99816.84;5047078;22;20054;-77
2021/04/28 09:54:50;;;;;;;14.37;9.27;;;;;;;15.28;33.88;99819.09;5027472;28;20489;-77
2021/04/28 09:57:18;;;;;;;12.90;8.48;;;;;;;15.34;34.23;99818.84;5030825;28;20082;-77
2021/04/28 09:59:49;;;;;;;12.68;8.77;;;;;;;15.24;33.89;99816.59;5030905;28;20044;-77
2021/04/28 10:02:26;;;;;;;13.70;8.90;;;;;;;15.30;34.30;99811.03;5020384;28;20037;-77
2021/04/28 10:04:53;;;;;;;14.60;9.23;;;;;;;15.49;34.61;99805.94;5020796;28;20092;-77
2021/04/28 10:07:27;;;;;;;16.02;8.40;;;;;;;15.57;34.37;99799.38;5018546;28;20038;-77
2021/04/28 10:09:53;;;;;;;17.23;11.43;;;;;;;15.84;34.55;99798.41;5021510;28;20025;-77
2021/04/28 10:12:20;;;;;;;12.27;9.40;;;;;;;16.12;34.42;99799.03;5021932;28;20041;-78
2021/04/28 10:14:46;;;;;;;14.35;9.82;;;;;;;16.30;33.72;99796.56;5020578;28;20573;-77
2021/04/28 10:17:16;;;;;;;14.80;10.63;;;;;;;16.43;33.64;99792.44;5023575;28;20057;-77
2021/04/28 10:19:43;;;;;;;14.95;10.70;;;;;;;16.52;33.26;99789.38;5021049;28;20034;-77
2021/04/28 10:22:17;;;;;;;16.98;9.95;;;;;;;16.55;33.48;99783.91;5016967;28;20045;-77
2021/04/28 10:24:46;;;;;;;17.58;10.63;;;;;;;16.52;32.97;99781.41;5016877;28;20049;-76
2021/04/28 10:27:13;;;;;;;13.55;8.93;;;;;;;16.53;33.10;99776.94;5020072;28;20095;-76
2021/04/28 10:29:39;;;;;;;13.85;9.85;;;;;;;16.60;33.08;99784.59;5018963;28;20030;-77
2021/04/28 10:32:08;;;;;;;11.88;8.48;;;;;;;16.72;33.10;99774.38;5017342;28;20036;-77
2021/04/28 10:34:41;;;;;;;13.65;8.50;;;;;;;16.75;32.60;99771.56;5019158;28;20437;-77
2021/04/28 10:37:06;;;;;;;13.55;9.55;;;;;;;16.75;32.71;99774.22;5018260;28;20043;-77
2021/04/28 10:39:33;;;;;;;13.82;8.95;;;;;;;16.85;33.15;99765.78;5022235;28;20041;-77
2021/04/28 10:41:58;;;;;;;12.60;9.63;;;;;;;16.96;32.76;99767.13;5023577;28;20087;-78
2021/04/28 10:44:30;;;;;;;13.98;9.10;;;;;;;17.11;32.37;99770.88;5026585;28;20041;-78
2021/04/28 10:47:13;;;;;;;15.13;8.57;;;;;;;17.26;32.29;99762.19;5027176;28;20147;-77
2021/04/28 10:50:05;;;;;;;13.93;10.13;;;;;;;17.34;32.84;99752.03;5023987;28;20025;-77
2021/04/28 10:52:36;;;;;;;14.73;10.93;;;;;;;17.37;32.48;99748.34;5020702;28;20087;-76
2021/04/28 10:55:03;;;;;;;12.43;10.35;;;;;;;17.28;33.25;99749.66;5018728;28;20034;-76
2021/04/28 10:57:40;;;;;;;13.55;9.32;;;;;;;17.47;32.73;99746.97;5024295;28;20075;-76
2021/04/28 11:00:34;;;;;;;15.52;9.63;;;;;;;17.44;32.83;99731.97;5025621;28;20037;-76
2021/04/28 11:03:32;;;;;;;13.77;9.95;;;;;;;17.47;32.95;99736.31;5012479;28;20046;-75
2021/04/28 11:06:26;;;;;;;12.40;8.98;;;;;;;17.58;33.20;99752.69;5021489;28;20401;-77
2021/04/28 11:09:00;;;;;;;23.10;19.42;;;;;;;17.77;33.01;99739.34;5024273;28;20045;-77
2021/04/28 11:11:32;;;;;;;15.60;13.57;;;;;;;17.98;32.59;99741.94;5020547;28;20120;-78
2021/04/28 11:17:21;;;;;;;16.60;11.95;;;;;;;18.22;32.90;99738.03;5020952;28;20046;-77
2021/04/28 11:19:50;;;;;;;13.15;9.35;;;;;;;18.49;32.09;99734.88;5019528;28;20053;-77
2021/04/28 11:22:18;;;;;;;12.20;8.35;;;;;;;18.40;32.18;99723.75;5022879;28;20045;-77
2021/04/28 11:24:51;;;;;;;12.45;8.68;;;;;;;18.58;32.68;99739.78;5024884;28;20509;-77
2021/04/28 11:27:42;;;;;;;12.00;7.00;;;;;;;18.64;31.21;99723.41;5020014;28;20042;-77
2021/04/28 11:30:29;;;;;;;10.20;7.05;;;;;;;18.43;31.44;99722.72;5020718;28;20041;-77
2021/04/28 11:33:30;;;;;;;11.32;7.22;;;;;;;18.63;30.34;99721.69;5003630;28;20053;-77
2021/04/28 11:35:55;;;;;;;8.07;5.80;;;;;;;18.76;30.43;99720.13;5023929;28;20589;-77
2021/04/28 11:38:26;;;;;;;9.73;7.72;;;;;;;19.25;29.92;99716.63;5021460;28;20069;-77
2021/04/28 11:41:00;;;;;;;7.82;5.68;;;;;;;19.61;28.93;99712.84;5023914;28;20174;-77
2021/04/28 11:43:27;;;;;;;9.20;5.93;;;;;;;19.74;28.67;99710.38;5024675;28;20117;-77